< < Back
Terminal Aerodrome Forecast


Current Version              Previous Versions:   1  2  3  4  5  6  7  8  9  

Terminal Aerodrome Forecast

766
FTUS44 KMRX 212320
TAFCHA
TAF
KCHA 212320Z 2200/2224 36004KT P6SM SKC
     FM221400 02009KT P6SM SKC=



Latest METAR

191
SAUS80 KWBC 220000
MTRCHA
METAR KCHA 212353Z 35006KT 10SM FEW055 16/08 A3002 RMK AO2 SLP165
T01610083 10228 20161 53011


USA.gov is the U.S. government's official web portal to all federal, state and local government web resources and services.